createdAt,value
2022-11-10T00:01:46.746Z,1.70
2022-11-10T00:06:48.882Z,1.55
2022-11-10T00:11:50.566Z,1.70
2022-11-10T00:17:01.077Z,1.75
2022-11-10T00:22:03.232Z,1.48
2022-11-10T00:27:05.086Z,1.73
2022-11-10T00:32:07.177Z,1.80
2022-11-10T00:37:08.844Z,1.40
2022-11-10T00:42:10.949Z,1.75
2022-11-10T00:47:13.215Z,1.38
2022-11-10T00:52:14.887Z,1.55
2022-11-10T00:57:16.599Z,1.77
2022-11-10T01:02:18.281Z,1.70
2022-11-10T01:07:19.918Z,1.52
2022-11-10T01:12:21.574Z,1.50
2022-11-10T01:17:23.278Z,1.80
2022-11-10T01:22:25.115Z,1.70
2022-11-10T01:27:26.830Z,1.90
2022-11-10T01:32:28.588Z,1.98
2022-11-10T01:37:30.294Z,1.60
2022-11-10T01:42:58.431Z,1.60
2022-11-10T01:48:04.284Z,1.60
2022-11-10T01:53:09.641Z,1.58
2022-11-10T01:58:13.231Z,1.70
2022-11-10T02:03:40.011Z,1.73
2022-11-10T02:08:42.978Z,1.60
2022-11-10T02:13:44.745Z,1.38
2022-11-10T02:18:46.449Z,1.52
2022-11-10T02:23:53.469Z,1.77
2022-11-10T02:28:55.350Z,1.55
2022-11-10T02:33:57.107Z,1.70
2022-11-10T02:38:58.796Z,1.60
2022-11-10T02:44:00.805Z,1.45
2022-11-10T02:49:02.512Z,1.80
2022-11-10T02:54:05.077Z,1.35
2022-11-10T02:59:06.795Z,1.77
2022-11-10T03:04:08.831Z,1.40
2022-11-10T03:09:10.521Z,1.30
2022-11-10T03:14:12.173Z,1.60
2022-11-10T03:19:13.844Z,1.58
2022-11-10T03:24:15.526Z,2.00
2022-11-10T03:29:17.180Z,1.92
2022-11-10T03:34:18.855Z,1.77
2022-11-10T03:39:20.513Z,1.50
2022-11-10T03:44:22.168Z,1.38
2022-11-10T03:49:23.850Z,1.70
2022-11-10T03:54:25.549Z,1.67
2022-11-10T03:59:27.202Z,1.50
2022-11-10T04:04:47.458Z,1.90
2022-11-10T04:09:49.152Z,2.17
2022-11-10T04:15:09.579Z,2.03
2022-11-10T04:20:11.968Z,1.88
2022-11-10T04:25:13.648Z,1.60
2022-11-10T04:30:15.697Z,1.95
2022-11-10T04:35:17.365Z,1.70
2022-11-10T04:40:19.046Z,1.77
2022-11-10T04:45:21.216Z,1.70
2022-11-10T04:50:22.874Z,2.13
2022-11-10T04:55:24.542Z,1.50
2022-11-10T05:00:26.191Z,2.90
2022-11-10T05:05:28.232Z,1.90
2022-11-10T05:10:29.895Z,1.90
2022-11-10T05:15:32.850Z,2.05
2022-11-10T05:20:34.734Z,2.10
2022-11-10T05:25:39.423Z,1.90
2022-11-10T05:30:41.457Z,2.13
2022-11-10T05:35:44.132Z,3.13
2022-11-10T05:40:45.862Z,4.10
2022-11-10T05:45:47.570Z,2.60
2022-11-10T05:50:49.656Z,1.90
2022-11-10T05:55:51.367Z,2.20
2022-11-10T06:00:53.139Z,2.50
2022-11-10T06:05:54.832Z,2.08
2022-11-10T06:10:56.565Z,1.95
2022-11-10T06:15:58.243Z,1.67
2022-11-10T06:20:59.989Z,1.90
2022-11-10T06:26:01.674Z,2.20
2022-11-10T06:31:03.390Z,2.10
2022-11-10T06:36:05.247Z,1.77
2022-11-10T06:41:07.030Z,1.60
2022-11-10T06:46:08.730Z,1.65
2022-11-10T06:51:10.539Z,2.17
2022-11-10T06:56:12.220Z,2.00
2022-11-10T07:01:15.796Z,2.08
2022-11-10T07:06:21.313Z,2.00
2022-11-10T07:11:23.000Z,2.30
2022-11-10T07:16:24.780Z,2.08
2022-11-10T07:21:26.471Z,2.20
2022-11-10T07:26:28.382Z,2.30
2022-11-10T07:31:30.106Z,2.28
2022-11-10T07:36:31.776Z,3.08
2022-11-10T07:41:33.787Z,2.00
2022-11-10T07:46:35.475Z,2.13
2022-11-10T07:51:37.180Z,2.20
2022-11-10T07:56:38.898Z,2.38
2022-11-10T08:01:40.698Z,3.05
2022-11-10T08:06:42.441Z,2.15
2022-11-10T08:11:45.511Z,2.35
2022-11-10T08:16:47.261Z,2.25
2022-11-10T08:21:49.020Z,2.17
2022-11-10T08:26:50.720Z,2.67
2022-11-10T08:31:53.118Z,2.40
2022-11-10T08:36:54.991Z,1.90
2022-11-10T08:41:56.653Z,2.58
2022-11-10T08:46:58.303Z,2.28
2022-11-10T08:52:00.004Z,2.50
2022-11-10T08:57:02.238Z,2.55
2022-11-10T09:02:04.056Z,2.50
2022-11-10T09:07:05.768Z,2.15
2022-11-10T09:12:07.485Z,2.42
2022-11-10T09:17:09.264Z,1.83
2022-11-10T09:22:11.002Z,2.00
2022-11-10T09:27:12.710Z,2.20
2022-11-10T09:32:14.431Z,2.10
2022-11-10T09:37:16.095Z,2.08
2022-11-10T09:42:34.476Z,2.00
2022-11-10T09:47:57.218Z,2.53
2022-11-10T09:53:00.814Z,2.13
2022-11-10T09:58:03.368Z,2.05
2022-11-10T10:03:06.602Z,2.30
2022-11-10T10:08:15.785Z,2.42
2022-11-10T10:13:50.139Z,2.38
2022-11-10T10:19:36.511Z,2.30
2022-11-10T10:24:39.257Z,2.40
2022-11-10T10:29:45.232Z,2.05
2022-11-10T10:34:47.072Z,2.28
2022-11-10T10:39:51.086Z,2.65
2022-11-10T10:45:15.700Z,2.08
2022-11-10T10:50:36.817Z,2.30
2022-11-10T10:55:44.460Z,2.50
2022-11-10T11:00:48.351Z,2.40
2022-11-10T11:06:17.500Z,2.28
2022-11-10T11:11:23.497Z,2.40
2022-11-10T11:16:25.168Z,2.33
2022-11-10T11:21:43.819Z,2.08
2022-11-10T11:26:51.121Z,1.98
2022-11-10T11:32:08.965Z,2.17
2022-11-10T11:37:45.530Z,2.95
2022-11-10T11:42:53.056Z,2.67
2022-11-10T11:48:09.769Z,2.45
2022-11-10T11:53:30.111Z,2.35
2022-11-10T11:58:46.949Z,2.55
2022-11-10T12:04:07.170Z,2.55
2022-11-10T12:09:11.901Z,2.15
2022-11-10T12:14:34.584Z,2.03
2022-11-10T12:20:07.079Z,2.47
2022-11-10T12:25:14.010Z,1.88
2022-11-10T12:30:17.886Z,2.20
2022-11-10T12:35:37.107Z,2.33
2022-11-10T12:41:01.628Z,1.60
2022-11-10T12:46:13.150Z,1.58
2022-11-10T12:51:31.004Z,1.60
2022-11-10T12:56:45.642Z,1.70
2022-11-10T13:01:51.292Z,1.60
2022-11-10T13:07:08.838Z,1.70
2022-11-10T13:12:18.266Z,1.60
2022-11-10T13:17:28.979Z,2.10
2022-11-10T13:22:34.218Z,1.98
2022-11-10T13:27:35.849Z,1.80
2022-11-10T13:32:37.598Z,1.85
2022-11-10T13:37:39.406Z,1.80
2022-11-10T13:42:46.955Z,1.70
2022-11-10T13:48:12.580Z,2.05
2022-11-10T13:53:43.555Z,1.90
2022-11-10T13:58:45.782Z,1.88
2022-11-10T14:03:48.299Z,2.05
2022-11-10T14:09:25.936Z,1.98
2022-11-10T14:14:43.495Z,1.95
2022-11-10T14:19:46.496Z,1.95
2022-11-10T14:25:13.178Z,2.05
2022-11-10T14:30:25.599Z,2.05
2022-11-10T14:35:29.966Z,2.05
2022-11-10T14:40:31.981Z,2.25
2022-11-10T14:45:33.774Z,2.22
2022-11-10T14:50:36.109Z,1.80
2022-11-10T14:55:43.007Z,1.98
2022-11-10T15:00:46.542Z,2.00
2022-11-10T15:05:49.027Z,2.85
2022-11-10T15:10:53.223Z,2.17
2022-11-10T15:16:22.714Z,2.60
2022-11-10T15:21:34.204Z,2.28
2022-11-10T15:26:40.675Z,2.20
2022-11-10T15:31:44.264Z,2.50
2022-11-10T15:36:46.044Z,2.40
2022-11-10T15:41:56.848Z,2.97
2022-11-10T15:46:59.551Z,2.70
2022-11-10T15:52:05.073Z,2.38
2022-11-10T15:57:14.877Z,2.50
2022-11-10T16:02:24.927Z,2.15
2022-11-10T16:07:26.675Z,2.03
2022-11-10T16:12:29.294Z,2.47
2022-11-10T16:17:31.019Z,2.17
2022-11-10T16:22:32.699Z,2.35
2022-11-10T16:27:35.603Z,2.53
2022-11-10T16:32:37.377Z,2.33
2022-11-10T16:37:41.646Z,2.65
2022-11-10T16:42:44.186Z,3.22
2022-11-10T16:47:48.500Z,2.28
2022-11-10T16:52:50.186Z,3.10
2022-11-10T16:57:51.949Z,2.55
2022-11-10T17:03:17.103Z,2.50
2022-11-10T17:08:25.128Z,4.13
2022-11-10T17:13:27.126Z,3.10
2022-11-10T17:18:29.147Z,3.17
2022-11-10T17:23:32.107Z,3.50
2022-11-10T17:28:33.868Z,4.75
2022-11-10T17:33:35.645Z,3.70
2022-11-10T17:38:37.480Z,4.55
2022-11-10T17:43:44.301Z,4.05
2022-11-10T17:48:47.802Z,3.78
2022-11-10T17:53:50.600Z,3.53
2022-11-10T17:58:53.494Z,4.43
2022-11-10T18:03:55.850Z,4.55
2022-11-10T18:08:57.784Z,4.70
2022-11-10T18:14:00.843Z,4.10
2022-11-10T18:19:02.941Z,5.40
2022-11-10T18:24:04.779Z,4.05
2022-11-10T18:29:06.478Z,4.30
2022-11-10T18:34:08.214Z,4.70
2022-11-10T18:39:09.890Z,4.45
2022-11-10T18:44:11.567Z,4.10
2022-11-10T18:49:13.380Z,3.90
2022-11-10T18:54:15.210Z,3.60
2022-11-10T18:59:16.990Z,4.25
2022-11-10T19:04:18.659Z,3.40
2022-11-10T19:09:20.411Z,3.80
2022-11-10T19:14:22.360Z,3.33
2022-11-10T19:19:24.086Z,3.25
2022-11-10T19:24:28.029Z,3.10
2022-11-10T19:29:31.228Z,2.90
2022-11-10T19:34:32.979Z,2.95
2022-11-10T19:39:34.666Z,3.50
2022-11-10T19:44:36.397Z,3.15
2022-11-10T19:49:38.630Z,3.30
2022-11-10T19:54:40.407Z,3.28
2022-11-10T19:59:42.100Z,3.58
2022-11-10T20:05:02.617Z,3.75
2022-11-10T20:10:04.961Z,3.95
2022-11-10T20:15:07.981Z,3.70
2022-11-10T20:20:09.758Z,3.88
2022-11-10T20:25:11.431Z,3.78
2022-11-10T20:30:13.184Z,3.63
2022-11-10T20:35:14.948Z,3.75
2022-11-10T20:40:43.060Z,3.65
2022-11-10T20:45:39.241Z,3.47
2022-11-10T20:50:41.120Z,3.50
2022-11-10T20:55:53.515Z,3.58
2022-11-10T21:00:55.955Z,4.15
2022-11-10T21:05:57.857Z,4.00
2022-11-10T21:11:03.160Z,3.97
2022-11-10T21:16:06.290Z,3.95
2022-11-10T21:21:19.926Z,3.83
2022-11-10T21:26:21.613Z,4.53
2022-11-10T21:31:23.954Z,4.22
2022-11-10T21:36:29.925Z,4.10
2022-11-10T21:41:32.230Z,4.00
2022-11-10T21:46:34.064Z,3.70
2022-11-10T21:51:35.969Z,3.90
2022-11-10T21:56:37.907Z,4.28
2022-11-10T22:01:39.724Z,4.50
2022-11-10T22:06:59.940Z,4.25
2022-11-10T22:12:20.916Z,4.45
2022-11-10T22:17:43.071Z,4.65
2022-11-10T22:22:52.350Z,5.00
2022-11-10T22:27:54.117Z,5.03
2022-11-10T22:32:55.916Z,4.72
2022-11-10T22:38:04.356Z,4.47
2022-11-10T22:43:25.082Z,5.60
2022-11-10T22:48:27.681Z,4.90
2022-11-10T22:53:30.726Z,4.60
2022-11-10T22:58:32.467Z,4.80
2022-11-10T23:03:35.073Z,3.90
2022-11-10T23:08:36.945Z,4.03
2022-11-10T23:13:39.671Z,4.60
2022-11-10T23:18:43.502Z,4.55
2022-11-10T23:23:46.245Z,4.78
2022-11-10T23:28:48.113Z,4.95
2022-11-10T23:33:55.189Z,5.53
2022-11-10T23:38:56.985Z,5.75
2022-11-10T23:43:58.716Z,5.88
2022-11-10T23:49:00.424Z,5.78
2022-11-10T23:54:02.112Z,5.55
2022-11-10T23:59:03.915Z,5.47
